Terminal Aerodrome Forecast
Issued by NWS

Home | Current Version | Previous Version | Text Only | Print | Product List | Glossary On
Versions: 1 2 3 4 5 6 7 8 9 10 11 12 13 14 15 16
198
FTUS43 KIND 061120
TAFLAF
TAF
KLAF 061120Z 0612/0712 VRB02KT P6SM SKC
      TEMPO 0612/0613 3SM BR
     FM061600 30006KT P6SM SKC
     FM062200 26005KT P6SM SCT100
     FM070200 24003KT P6SM SCT100
     FM070800 28007KT P6SM SCT100
      AMD LTD TO CLD WIND AND VIS TIL 061300=

USA.gov is the U.S. government's official web portal to all federal, state and local government web resources and services.